Time;durP1;ratioP1;P1;durP2;ratioP2;P2;SDS_P1;SDS_P2;PMS_P1;PMS_P2;Temp;Humidity;BMP_temperature;BMP_pressure;BME280_temperature;BME280_humidity;BME280_pressure;Samples;Min_cycle;Max_cycle;Signal;HPM_P1;HPM_P2
2022/04/29 00:01:35;;;;;;;16.80;6.78;;;16.80;98.70;;;;;;5072098;28;20458;-73
2022/04/29 00:04:04;;;;;;;12.73;6.07;;;16.80;98.50;;;;;;5066331;28;20036;-73
2022/04/29 00:06:32;;;;;;;9.13;5.28;;;16.80;98.60;;;;;;5050726;28;20045;-75
2022/04/29 00:08:59;;;;;;;12.23;5.20;;;16.80;98.60;;;;;;5072390;28;20115;-72
2022/04/29 00:11:28;;;;;;;17.27;6.18;;;16.80;98.70;;;;;;5071302;28;20490;-72
2022/04/29 00:13:56;;;;;;;17.42;5.10;;;16.70;98.70;;;;;;5066426;28;20051;-73
2022/04/29 00:16:26;;;;;;;11.27;5.13;;;16.70;98.80;;;;;;5051015;28;20043;-73
2022/04/29 00:18:54;;;;;;;13.15;5.68;;;16.80;98.80;;;;;;5054184;28;20044;-73
2022/04/29 00:21:23;;;;;;;16.70;5.72;;;16.80;98.80;;;;;;5054809;28;20044;-73
2022/04/29 00:23:50;;;;;;;11.98;5.35;;;16.80;98.80;;;;;;5067617;28;20642;-73
2022/04/29 00:26:18;;;;;;;10.35;5.65;;;16.70;98.90;;;;;;5050975;28;20219;-73
2022/04/29 00:28:46;;;;;;;10.10;5.60;;;16.70;98.90;;;;;;5068883;28;20048;-74
2022/04/29 00:31:13;;;;;;;16.40;5.85;;;16.70;98.70;;;;;;5070731;28;20089;-73
2022/04/29 00:33:41;;;;;;;13.38;5.72;;;16.70;99.00;;;;;;5086840;28;20044;-73
2022/04/29 00:36:08;;;;;;;11.50;5.18;;;16.70;99.10;;;;;;5050985;28;20075;-73
2022/04/29 00:38:36;;;;;;;12.45;5.68;;;16.70;99.10;;;;;;5033948;28;20041;-73
2022/04/29 00:41:03;;;;;;;13.55;7.00;;;16.70;99.10;;;;;;5050870;28;20040;-74
2022/04/29 00:43:31;;;;;;;15.43;5.88;;;16.80;99.10;;;;;;5050738;28;20435;-73
2022/04/29 00:45:59;;;;;;;9.55;5.50;;;16.80;99.00;;;;;;5017777;28;20053;-74
2022/04/29 00:48:28;;;;;;;16.10;5.53;;;16.80;99.10;;;;;;5049816;28;20056;-73
2022/04/29 00:50:56;;;;;;;10.23;4.97;;;16.80;99.10;;;;;;5034323;28;20071;-73
2022/04/29 00:53:26;;;;;;;10.57;4.57;;;16.80;99.00;;;;;;5034700;28;20056;-73
2022/04/29 00:55:55;;;;;;;16.88;5.95;;;16.80;99.00;;;;;;5050625;28;20044;-73
2022/04/29 00:58:33;;;;;;;12.50;6.07;;;16.80;99.00;;;;;;5034188;28;20518;-73
2022/04/29 01:01:02;;;;;;;9.65;4.45;;;16.80;99.00;;;;;;5050665;28;20505;-74
2022/04/29 01:03:31;;;;;;;11.00;4.50;;;16.80;99.10;;;;;;5074141;28;20071;-73
2022/04/29 01:05:59;;;;;;;11.35;7.00;;;16.70;99.10;;;;;;5070701;28;20039;-74
2022/04/29 01:08:27;;;;;;;12.70;5.45;;;16.70;98.90;;;;;;5074864;28;20114;-73
2022/04/29 01:10:55;;;;;;;9.10;5.15;;;16.70;99.00;;;;;;5075153;28;20050;-76
2022/04/29 01:13:23;;;;;;;10.05;4.47;;;16.70;99.10;;;;;;5094238;28;20044;-73
2022/04/29 01:15:55;;;;;;;16.15;4.68;;;16.70;99.00;;;;;;5095676;28;20040;-74
2022/04/29 01:18:24;;;;;;;10.38;5.60;;;16.70;99.00;;;;;;5062333;28;20083;-74
2022/04/29 01:21:03;;;;;;;18.30;7.05;;;16.70;99.00;;;;;;5095521;28;20048;-73
2022/04/29 01:23:33;;;;;;;10.88;4.95;;;16.70;98.90;;;;;;5096108;28;20416;-72
2022/04/29 01:26:01;;;;;;;14.80;6.22;;;16.70;98.80;;;;;;5078661;28;20048;-73
2022/04/29 01:28:30;;;;;;;8.95;5.15;;;16.70;98.80;;;;;;5079387;28;20047;-72
2022/04/29 01:31:01;;;;;;;8.68;4.70;;;16.70;98.70;;;;;;5077622;28;20044;-73
2022/04/29 01:33:30;;;;;;;14.00;5.57;;;16.70;98.60;;;;;;5079128;28;20742;-72
2022/04/29 01:35:58;;;;;;;12.15;5.35;;;16.70;98.50;;;;;;5062500;28;20108;-72
2022/04/29 01:38:26;;;;;;;13.35;5.03;;;16.80;98.40;;;;;;5062007;28;20059;-71
2022/04/29 01:40:54;;;;;;;7.32;4.20;;;16.70;98.20;;;;;;5095301;28;20051;-73
2022/04/29 01:43:28;;;;;;;12.65;4.53;;;16.70;98.40;;;;;;5079372;28;20035;-72
2022/04/29 01:45:56;;;;;;;10.02;5.40;;;16.70;98.00;;;;;;5061989;28;20401;-75
2022/04/29 01:48:45;;;;;;;10.20;4.40;;;16.70;97.90;;;;;;5078185;28;20360;-72
2022/04/29 01:51:17;;;;;;;14.23;4.85;;;16.70;97.80;;;;;;5094969;28;20169;-72
2022/04/29 01:53:45;;;;;;;12.00;5.25;;;16.70;97.70;;;;;;5090781;28;20043;-73
2022/04/29 01:56:13;;;;;;;9.25;4.93;;;16.70;97.60;;;;;;5041761;28;20778;-74
2022/04/29 01:58:40;;;;;;;8.18;4.82;;;16.70;97.60;;;;;;5058493;28;20051;-72
2022/04/29 02:01:09;;;;;;;9.15;4.78;;;16.70;97.50;;;;;;5074168;28;20410;-73
2022/04/29 02:03:37;;;;;;;10.77;4.95;;;16.70;97.50;;;;;;5074897;28;20044;-72
2022/04/29 02:06:05;;;;;;;12.02;4.35;;;16.70;97.40;;;;;;5075043;28;20048;-73
2022/04/29 02:08:33;;;;;;;12.25;4.90;;;16.70;97.40;;;;;;5041538;28;20163;-72
2022/04/29 02:11:01;;;;;;;12.57;5.43;;;16.70;97.30;;;;;;5056890;28;20494;-73
2022/04/29 02:13:31;;;;;;;7.53;4.35;;;16.80;97.30;;;;;;5109703;28;20451;-72
2022/04/29 02:16:25;;;;;;;7.78;5.15;;;16.70;97.20;;;;;;5078158;28;20048;-72
2022/04/29 02:18:53;;;;;;;9.82;4.95;;;16.70;97.30;;;;;;5078067;28;20143;-72
2022/04/29 02:21:21;;;;;;;8.13;4.53;;;16.70;97.30;;;;;;5094653;28;20481;-72
2022/04/29 02:23:49;;;;;;;11.02;4.47;;;16.70;97.20;;;;;;5093774;28;20040;-72
2022/04/29 02:26:17;;;;;;;7.70;4.65;;;16.70;97.20;;;;;;5077495;28;20050;-72
2022/04/29 02:28:44;;;;;;;12.25;5.40;;;16.70;97.20;;;;;;5060939;28;20055;-72
2022/04/29 02:31:12;;;;;;;11.73;4.97;;;16.60;97.20;;;;;;5093989;28;20043;-72
2022/04/29 02:33:40;;;;;;;11.52;4.75;;;16.60;97.30;;;;;;5077690;28;20117;-72
2022/04/29 02:36:09;;;;;;;7.75;4.72;;;16.60;97.30;;;;;;5076880;28;20052;-72
2022/04/29 02:38:38;;;;;;;12.35;5.05;;;16.60;97.40;;;;;;5078081;28;20104;-72
2022/04/29 02:41:06;;;;;;;10.60;4.45;;;16.50;97.50;;;;;;5077369;28;20048;-72
2022/04/29 02:43:34;;;;;;;10.85;5.40;;;16.50;97.50;;;;;;5060447;28;20048;-72
2022/04/29 02:46:02;;;;;;;13.95;4.40;;;16.50;97.60;;;;;;5077761;28;20069;-72
2022/04/29 02:48:30;;;;;;;9.85;5.50;;;16.60;97.70;;;;;;5055788;28;20040;-72
2022/04/29 02:50:59;;;;;;;12.57;5.38;;;16.50;97.70;;;;;;5056886;28;20502;-72
2022/04/29 02:53:26;;;;;;;8.38;4.93;;;16.50;97.70;;;;;;5056932;28;20044;-72
2022/04/29 02:55:54;;;;;;;11.65;5.30;;;16.50;97.80;;;;;;5040564;28;20048;-73
2022/04/29 02:58:40;;;;;;;13.93;5.50;;;16.50;97.80;;;;;;5076612;28;20040;-72
2022/04/29 03:01:08;;;;;;;12.35;5.07;;;16.50;97.80;;;;;;5066943;28;20064;-72
2022/04/29 03:03:36;;;;;;;8.95;4.60;;;16.60;97.90;;;;;;5053594;28;20045;-72
2022/04/29 03:06:05;;;;;;;10.02;5.60;;;16.50;97.80;;;;;;5037489;28;20094;-72
2022/04/29 03:08:32;;;;;;;16.88;5.97;;;16.50;97.80;;;;;;5036951;28;20072;-72
2022/04/29 03:11:01;;;;;;;10.02;4.65;;;16.50;97.80;;;;;;5020076;28;20194;-73
2022/04/29 03:13:30;;;;;;;12.82;5.25;;;16.50;97.70;;;;;;5053177;28;20139;-72
2022/04/29 03:16:10;;;;;;;11.85;5.00;;;16.50;97.70;;;;;;5053419;28;20041;-72
2022/04/29 03:18:39;;;;;;;8.63;4.10;;;16.50;97.60;;;;;;5020377;28;20143;-72
2022/04/29 03:21:08;;;;;;;11.13;4.82;;;16.40;97.50;;;;;;5036597;28;20048;-72
2022/04/29 03:23:36;;;;;;;8.63;4.65;;;16.40;97.60;;;;;;5053689;28;20033;-72
2022/04/29 03:26:05;;;;;;;11.05;4.90;;;16.40;97.70;;;;;;5036830;28;20525;-72
2022/04/29 03:28:33;;;;;;;9.55;4.70;;;16.30;97.70;;;;;;5020713;28;20044;-72
2022/04/29 03:31:01;;;;;;;10.52;5.20;;;16.30;97.60;;;;;;5035609;28;20056;-72
2022/04/29 03:33:48;;;;;;;11.80;5.30;;;16.30;97.80;;;;;;5038421;28;20502;-73
2022/04/29 03:36:16;;;;;;;11.48;5.55;;;16.30;97.90;;;;;;5052556;28;20052;-72
2022/04/29 03:38:52;;;;;;;16.90;5.80;;;16.30;98.00;;;;;;5021250;28;20149;-72
2022/04/29 03:41:20;;;;;;;13.05;5.18;;;16.30;97.90;;;;;;5025513;28;20087;-73
2022/04/29 03:43:48;;;;;;;11.27;4.85;;;16.30;98.00;;;;;;5052731;28;20045;-72
2022/04/29 03:46:24;;;;;;;12.13;5.28;;;16.30;98.00;;;;;;5037749;28;20048;-72
2022/04/29 03:52:15;;;;;;;18.55;6.13;;;16.30;98.10;;;;;;5036380;28;20135;-73
2022/04/29 03:54:43;;;;;;;9.68;4.93;;;16.30;98.00;;;;;;5019208;28;20056;-73
2022/04/29 03:57:11;;;;;;;13.50;5.43;;;16.30;98.00;;;;;;5052241;28;20136;-73
2022/04/29 03:59:39;;;;;;;11.20;5.32;;;16.20;98.00;;;;;;5052655;28;20044;-72
2022/04/29 04:02:07;;;;;;;12.38;6.45;;;16.30;98.00;;;;;;5019606;28;20071;-73
2022/04/29 04:04:34;;;;;;;11.45;5.25;;;16.20;98.00;;;;;;5052961;28;20380;-72
2022/04/29 04:07:03;;;;;;;11.13;5.68;;;16.30;98.10;;;;;;5019365;28;20137;-73
2022/04/29 04:09:57;;;;;;;11.43;6.85;;;16.20;98.10;;;;;;5067462;28;20084;-72
2022/04/29 04:12:26;;;;;;;9.27;5.55;;;16.30;98.10;;;;;;5070149;28;20046;-74
2022/04/29 04:15:21;;;;;;;11.20;5.68;;;16.30;98.00;;;;;;5052007;28;20049;-73
2022/04/29 04:17:49;;;;;;;8.90;5.53;;;16.30;97.90;;;;;;5052526;28;20102;-73
2022/04/29 04:20:18;;;;;;;12.48;7.00;;;16.30;97.80;;;;;;5019306;28;20079;-73
2022/04/29 04:22:54;;;;;;;16.15;5.82;;;16.30;97.80;;;;;;5052414;28;20120;-72
2022/04/29 04:25:21;;;;;;;15.15;5.43;;;16.40;97.80;;;;;;5035830;28;20135;-72
2022/04/29 04:27:49;;;;;;;13.82;5.78;;;16.40;97.70;;;;;;5034861;28;20458;-73
2022/04/29 04:30:17;;;;;;;22.70;6.38;;;16.50;97.70;;;;;;5052159;28;20147;-72
2022/04/29 04:32:45;;;;;;;11.43;5.95;;;16.40;97.60;;;;;;5022449;28;20079;-73
2022/04/29 04:35:13;;;;;;;11.80;5.80;;;16.40;97.60;;;;;;5035611;28;20522;-72
2022/04/29 04:37:41;;;;;;;11.07;5.38;;;16.40;97.60;;;;;;5035452;28;20044;-73
2022/04/29 04:40:11;;;;;;;11.32;5.40;;;16.40;97.50;;;;;;5019101;28;20048;-72
2022/04/29 04:42:46;;;;;;;10.90;6.07;;;16.50;97.60;;;;;;5035412;28;20048;-72
2022/04/29 04:45:34;;;;;;;15.57;5.60;;;16.50;97.40;;;;;;5035280;28;20052;-72
2022/04/29 04:48:37;;;;;;;9.65;4.57;;;16.50;97.40;;;;;;4963700;28;20050;-72
2022/04/29 04:51:23;;;;;;;8.77;5.03;;;16.60;97.30;;;;;;5067623;28;20056;-72
2022/04/29 04:53:59;;;;;;;;;;;16.60;97.20;;;;;;5056197;28;20047;-72
2022/04/29 04:56:28;;;;;;;10.32;4.65;;;16.70;97.20;;;;;;5038896;28;20370;-72
2022/04/29 04:58:56;;;;;;;8.45;4.90;;;16.70;97.10;;;;;;5039532;28;20048;-72
2022/04/29 05:01:25;;;;;;;7.93;5.03;;;16.70;97.10;;;;;;5055380;28;20041;-72
2022/04/29 05:04:11;;;;;;;10.07;4.85;;;16.70;97.10;;;;;;5042051;28;20069;-72
2022/04/29 05:06:57;;;;;;;9.45;4.47;;;16.80;97.20;;;;;;5055402;28;20162;-72
2022/04/29 05:09:26;;;;;;;7.30;4.13;;;16.70;97.10;;;;;;5039072;28;20092;-72
2022/04/29 05:11:54;;;;;;;10.32;5.82;;;16.80;97.00;;;;;;5038833;28;20056;-73
2022/04/29 05:14:49;;;;;;;9.65;4.97;;;16.80;97.00;;;;;;5036079;28;20060;-72
2022/04/29 05:17:17;;;;;;;11.82;5.28;;;16.70;97.00;;;;;;5055232;28;20036;-73
2022/04/29 05:20:04;;;;;;;7.55;4.22;;;16.70;97.10;;;;;;5058455;28;20045;-73
2022/04/29 05:22:35;;;;;;;9.05;4.20;;;16.70;97.20;;;;;;5040441;28;20131;-72
2022/04/29 05:25:05;;;;;;;6.95;4.00;;;16.80;97.10;;;;;;5055164;28;20052;-72
2022/04/29 05:28:02;;;;;;;9.15;3.90;;;16.90;97.00;;;;;;5055218;28;20135;-72
2022/04/29 05:30:49;;;;;;;;;;;16.90;97.00;;;;;;5055494;28;20776;-72
2022/04/29 05:33:37;;;;;;;7.55;4.38;;;16.90;97.00;;;;;;5073450;28;19967;-72
2022/04/29 05:36:24;;;;;;;9.25;4.43;;;17.00;97.20;;;;;;5073019;28;20037;-72
2022/04/29 05:42:15;;;;;;;11.07;5.40;;;17.00;97.60;;;;;;5055427;28;20078;-72
2022/04/29 05:44:44;;;;;;;9.00;4.07;;;17.00;97.70;;;;;;5055312;28;20522;-72
2022/04/29 05:47:16;;;;;;;10.20;4.40;;;17.00;97.70;;;;;;5039221;28;20052;-72
2022/04/29 05:49:45;;;;;;;12.13;4.32;;;17.10;97.70;;;;;;5055282;28;20072;-72
2022/04/29 05:52:14;;;;;;;9.85;4.35;;;17.20;97.60;;;;;;5054837;28;20529;-72
2022/04/29 05:54:46;;;;;;;12.45;3.92;;;17.10;97.60;;;;;;5038573;28;20049;-72
2022/04/29 05:57:20;;;;;;;8.45;4.13;;;17.20;97.50;;;;;;5055016;28;20105;-73
2022/04/29 05:59:47;;;;;;;8.73;4.30;;;17.20;97.50;;;;;;5038127;28;20063;-72
2022/04/29 06:02:35;;;;;;;9.43;4.20;;;17.20;97.40;;;;;;5054590;28;20075;-72
2022/04/29 06:05:11;;;;;;;11.85;4.70;;;17.20;97.20;;;;;;5039059;28;20101;-75
2022/04/29 06:07:41;;;;;;;10.20;6.10;;;17.30;97.10;;;;;;5038308;28;20095;-73
2022/04/29 06:10:11;;;;;;;9.80;4.22;;;17.30;96.90;;;;;;5070752;28;20472;-72
2022/04/29 06:12:41;;;;;;;8.80;4.43;;;17.30;96.60;;;;;;5038230;28;20045;-72
2022/04/29 06:15:19;;;;;;;7.20;3.83;;;17.30;96.50;;;;;;5053958;28;20062;-72
2022/04/29 06:18:07;;;;;;;9.90;4.13;;;17.30;96.40;;;;;;5036810;28;20057;-72
2022/04/29 06:20:54;;;;;;;13.82;4.80;;;17.30;96.20;;;;;;5063364;28;20051;-72
2022/04/29 06:23:40;;;;;;;12.40;4.97;;;17.40;96.20;;;;;;5074110;28;20051;-72
2022/04/29 06:26:09;;;;;;;9.02;4.13;;;17.40;96.10;;;;;;5041518;28;20052;-72
2022/04/29 06:28:37;;;;;;;11.23;4.45;;;17.40;96.10;;;;;;5058035;28;20086;-74
2022/04/29 06:31:06;;;;;;;16.02;4.53;;;17.40;96.00;;;;;;5074145;28;20044;-73
2022/04/29 06:34:03;;;;;;;;;;;17.40;96.00;;;;;;5061521;28;20055;-72
2022/04/29 06:36:30;;;;;;;6.28;3.50;;;17.50;96.00;;;;;;5074001;28;19927;-72
2022/04/29 06:39:00;;;;;;;6.35;3.47;;;17.50;96.00;;;;;;5041326;28;20142;-73
2022/04/29 06:41:46;;;;;;;7.72;3.47;;;17.50;96.10;;;;;;5059755;28;20064;-73
2022/04/29 06:44:40;;;;;;;8.77;4.88;;;17.50;96.10;;;;;;5061073;28;20062;-73
2022/04/29 06:47:26;;;;;;;8.60;4.30;;;17.50;96.00;;;;;;5060750;28;20044;-73
2022/04/29 06:50:12;;;;;;;10.18;4.22;;;17.50;95.90;;;;;;5060486;28;20561;-73
2022/04/29 06:53:09;;;;;;;13.02;4.22;;;17.60;95.80;;;;;;5052420;28;20051;-72
2022/04/29 06:55:38;;;;;;;9.02;4.53;;;17.60;95.50;;;;;;5039794;28;20592;-72
2022/04/29 06:58:07;;;;;;;9.07;4.63;;;17.60;95.50;;;;;;5056623;28;20055;-72
2022/04/29 07:00:39;;;;;;;10.77;4.22;;;17.70;95.40;;;;;;5056625;28;20055;-72
2022/04/29 07:03:08;;;;;;;6.55;4.53;;;17.80;95.10;;;;;;5055736;28;20052;-72
2022/04/29 07:05:41;;;;;;;10.88;4.30;;;17.80;95.00;;;;;;5073619;28;20043;-72
2022/04/29 07:08:13;;;;;;;7.07;4.22;;;17.80;95.00;;;;;;5054357;28;20510;-72
2022/04/29 07:11:04;;;;;;;8.88;4.07;;;17.90;94.80;;;;;;5050981;28;20049;-72
2022/04/29 07:13:54;;;;;;;9.15;3.78;;;18.00;94.80;;;;;;5053456;28;20051;-71
2022/04/29 07:16:23;;;;;;;10.52;3.60;;;18.20;94.80;;;;;;5037288;28;20056;-72
2022/04/29 07:18:54;;;;;;;7.30;4.95;;;18.20;94.80;;;;;;5071541;28;20127;-72
2022/04/29 07:21:22;;;;;;;12.40;4.10;;;18.30;94.60;;;;;;5036571;28;20048;-72
2022/04/29 07:23:50;;;;;;;8.52;4.15;;;18.40;94.50;;;;;;5052521;28;20040;-72
2022/04/29 07:26:18;;;;;;;9.98;4.35;;;18.50;94.40;;;;;;5036210;28;20543;-72
2022/04/29 07:28:46;;;;;;;10.23;4.72;;;18.70;94.10;;;;;;5036137;28;20368;-72
2022/04/29 07:31:15;;;;;;;7.32;3.60;;;18.80;93.90;;;;;;5019407;28;20048;-72
2022/04/29 07:34:02;;;;;;;8.93;4.40;;;18.80;93.50;;;;;;5038880;28;20457;-73
2022/04/29 07:42:20;;;;;;;9.60;3.92;;;19.10;93.30;;;;;;5027989;28;20890;-73
2022/04/29 07:44:48;;;;;;;9.40;3.97;;;19.30;93.50;;;;;;5036351;28;20516;-72
2022/04/29 07:47:24;;;;;;;7.35;3.58;;;19.50;93.50;;;;;;5053150;28;20052;-71
2022/04/29 07:49:57;;;;;;;7.80;3.38;;;19.60;93.20;;;;;;5052748;28;20044;-72
2022/04/29 07:52:26;;;;;;;9.23;4.78;;;19.80;93.00;;;;;;5052905;28;20062;-72
2022/04/29 07:54:53;;;;;;;6.72;3.53;;;20.00;93.10;;;;;;5052431;28;20052;-72
2022/04/29 07:57:22;;;;;;;10.25;3.55;;;20.20;92.90;;;;;;5053041;28;20047;-72
2022/04/29 07:59:54;;;;;;;6.97;3.03;;;20.40;92.40;;;;;;5044659;28;20048;-72
2022/04/29 08:02:41;;;;;;;8.52;3.47;;;20.60;91.80;;;;;;5055677;28;20047;-71
2022/04/29 08:05:10;;;;;;;7.50;3.40;;;20.70;91.60;;;;;;5020388;28;20498;-71
2022/04/29 08:07:38;;;;;;;7.60;3.58;;;20.70;91.50;;;;;;5036190;28;20052;-72
2022/04/29 08:10:06;;;;;;;7.20;3.10;;;20.90;91.30;;;;;;5052639;28;20140;-72
2022/04/29 08:12:36;;;;;;;9.07;4.20;;;21.00;90.90;;;;;;5019030;28;20044;-72
2022/04/29 08:15:32;;;;;;;5.22;2.80;;;21.20;90.70;;;;;;5017097;28;20529;-74
2022/04/29 08:18:17;;;;;;;5.82;2.95;;;21.30;90.30;;;;;;5038496;28;20048;-73
2022/04/29 08:20:45;;;;;;;15.13;3.47;;;21.30;90.60;;;;;;5052494;28;20058;-72
2022/04/29 08:23:13;;;;;;;6.40;3.17;;;21.40;90.70;;;;;;5035145;28;20045;-72
2022/04/29 08:25:41;;;;;;;9.52;3.63;;;21.50;90.40;;;;;;5052370;28;20064;-72
2022/04/29 08:28:09;;;;;;;6.75;2.85;;;21.60;90.50;;;;;;5019277;28;20054;-72
2022/04/29 08:30:39;;;;;;;10.55;3.47;;;21.70;90.10;;;;;;5051950;28;20052;-73
2022/04/29 08:33:13;;;;;;;6.82;2.95;;;22.00;90.00;;;;;;5019388;28;20049;-72
2022/04/29 08:35:45;;;;;;;11.40;3.95;;;22.00;90.20;;;;;;5052270;28;20040;-72
2022/04/29 08:38:13;;;;;;;9.75;3.75;;;22.00;90.20;;;;;;5036229;28;20086;-71
2022/04/29 08:40:46;;;;;;;9.50;3.75;;;22.00;89.70;;;;;;5051952;28;20044;-72
2022/04/29 08:43:21;;;;;;;6.00;3.13;;;22.20;89.10;;;;;;5035034;28;20044;-71
2022/04/29 08:45:53;;;;;;;4.95;3.28;;;22.20;88.70;;;;;;5019376;28;20453;-72
2022/04/29 08:48:45;;;;;;;6.28;3.13;;;22.20;88.40;;;;;;5051474;28;20044;-72
2022/04/29 08:51:13;;;;;;;5.63;2.80;;;22.30;88.00;;;;;;5051943;28;20044;-73
2022/04/29 08:53:41;;;;;;;9.45;2.72;;;22.40;87.10;;;;;;5052036;28;20040;-72
2022/04/29 08:58:56;;;;;;;7.18;2.95;;;22.30;87.10;;;;;;5063282;28;20040;-72
2022/04/29 09:01:24;;;;;;;7.07;3.20;;;22.30;86.70;;;;;;5072016;28;20563;-73
2022/04/29 09:03:52;;;;;;;6.97;3.92;;;22.30;87.00;;;;;;5055630;28;20044;-72
2022/04/29 09:06:22;;;;;;;12.20;7.28;;;22.40;87.10;;;;;;5055331;28;20561;-72
2022/04/29 09:08:50;;;;;;;6.28;4.18;;;22.40;87.30;;;;;;5071849;28;20143;-76
2022/04/29 09:11:26;;;;;;;6.38;3.00;;;22.50;87.00;;;;;;5089768;28;20051;-72
2022/04/29 09:13:54;;;;;;;5.88;2.60;;;22.50;86.70;;;;;;5071826;28;20040;-72
2022/04/29 09:16:44;;;;;;;4.72;2.47;;;22.50;87.30;;;;;;5039998;28;20052;-73
2022/04/29 09:19:32;;;;;;;7.35;3.03;;;22.40;86.40;;;;;;5054114;28;20044;-72
2022/04/29 09:22:08;;;;;;;6.63;2.53;;;22.40;86.60;;;;;;5071034;28;20044;-71
2022/04/29 09:25:01;;;;;;;6.25;2.83;;;22.50;86.70;;;;;;5074038;28;20056;-73
2022/04/29 09:28:01;;;;;;;6.22;3.25;;;22.70;86.30;;;;;;5042097;28;20044;-72
2022/04/29 09:30:53;;;;;;;5.70;3.03;;;22.70;86.80;;;;;;5070237;28;20040;-72
2022/04/29 09:33:39;;;;;;;5.53;2.67;;;22.70;85.90;;;;;;5058936;28;20510;-72
2022/04/29 09:36:30;;;;;;;7.65;3.25;;;22.70;85.90;;;;;;5061927;28;20105;-72
2022/04/29 09:41:58;;;;;;;6.32;3.38;;;23.00;86.30;;;;;;5093629;28;20044;-72
2022/04/29 09:44:36;;;;;;;8.07;3.38;;;23.00;84.40;;;;;;5075430;28;20040;-72
2022/04/29 09:47:21;;;;;;;10.05;3.08;;;23.00;84.30;;;;;;5075118;28;20547;-72
2022/04/29 09:49:58;;;;;;;6.20;2.45;;;22.90;83.70;;;;;;5057095;28;20487;-72
2022/04/29 09:52:29;;;;;;;8.80;4.15;;;22.90;83.80;;;;;;5055165;28;20059;-72
2022/04/29 09:55:23;;;;;;;5.47;2.67;;;22.70;84.10;;;;;;5054873;28;20064;-73
2022/04/29 09:57:56;;;;;;;6.80;3.10;;;22.80;84.20;;;;;;5035581;28;20595;-72
2022/04/29 10:00:26;;;;;;;7.70;2.90;;;22.80;83.80;;;;;;5038601;28;20044;-72
2022/04/29 10:02:53;;;;;;;11.20;3.47;;;22.70;83.20;;;;;;5055323;28;20409;-72
2022/04/29 10:05:27;;;;;;;7.20;2.17;;;22.70;83.70;;;;;;5039066;28;20052;-73
2022/04/29 10:08:07;;;;;;;5.68;3.35;;;22.50;84.20;;;;;;5038144;28;20498;-73
2022/04/29 10:10:35;;;;;;;4.97;3.30;;;22.40;84.40;;;;;;5038143;28;20106;-74
2022/04/29 10:13:07;;;;;;;7.13;2.97;;;22.50;84.30;;;;;;5037919;28;20055;-73
2022/04/29 10:15:46;;;;;;;5.93;2.72;;;22.50;84.10;;;;;;5055026;28;20051;-72
2022/04/29 10:21:50;;;;;;;9.40;3.22;;;22.50;83.80;;;;;;5047411;28;20131;-73
2022/04/29 10:24:18;;;;;;;6.53;3.50;;;22.40;83.60;;;;;;5055019;28;20083;-73
2022/04/29 10:26:47;;;;;;;5.70;2.58;;;22.30;83.60;;;;;;5054308;28;20516;-73
2022/04/29 10:29:15;;;;;;;6.45;3.10;;;22.30;83.90;;;;;;5054444;28;20434;-73
2022/04/29 10:32:04;;;;;;;4.20;2.63;;;22.30;84.00;;;;;;5037947;28;20051;-73
2022/04/29 10:34:33;;;;;;;4.50;2.80;;;22.30;83.80;;;;;;5054665;28;20044;-73
2022/04/29 10:37:11;;;;;;;5.88;3.65;;;22.20;83.70;;;;;;5037069;28;20105;-73
2022/04/29 10:39:40;;;;;;;5.85;3.03;;;22.00;83.60;;;;;;5038244;28;20048;-73
2022/04/29 10:42:09;;;;;;;5.85;2.85;;;21.90;84.40;;;;;;5062957;28;20051;-74
2022/04/29 10:45:01;;;;;;;6.28;3.08;;;21.80;84.40;;;;;;5036905;28;20560;-73
2022/04/29 10:47:41;;;;;;;3.65;2.17;;;21.90;84.90;;;;;;5038387;28;20135;-72
2022/04/29 10:50:37;;;;;;;5.82;3.20;;;21.60;84.50;;;;;;5032709;28;20518;-73
2022/04/29 10:53:25;;;;;;;5.05;2.78;;;21.60;84.60;;;;;;5053738;28;20060;-73
2022/04/29 10:56:28;;;;;;;4.57;2.97;;;21.40;84.70;;;;;;5037267;28;20056;-72
2022/04/29 10:59:09;;;;;;;8.52;2.90;;;21.40;84.30;;;;;;5055188;28;20056;-73
2022/04/29 11:01:38;;;;;;;3.47;2.30;;;21.40;83.20;;;;;;5070534;28;20048;-72
2022/04/29 11:04:27;;;;;;;7.25;2.65;;;21.30;82.70;;;;;;5071610;28;20584;-73
2022/04/29 11:06:55;;;;;;;6.68;2.78;;;21.30;83.30;;;;;;5053923;28;20051;-72
2022/04/29 11:09:26;;;;;;;4.82;2.30;;;21.30;83.40;;;;;;5053444;28;20493;-72
2022/04/29 11:11:55;;;;;;;4.60;2.50;;;21.30;83.00;;;;;;5053860;28;20041;-72
2022/04/29 11:15:14;;;;;;;;;;;21.30;82.70;;;;;;4993629;28;20068;-72
2022/04/29 11:18:22;;;;;;;4.82;2.80;;;21.30;82.80;;;;;;5009188;28;19929;-72
2022/04/29 11:20:57;;;;;;;5.22;2.33;;;21.20;82.10;;;;;;5028038;28;20071;-70
2022/04/29 11:26:18;;;;;;;4.78;2.65;;;21.20;83.10;;;;;;5071112;28;20048;-70
2022/04/29 11:28:52;;;;;;;12.70;3.50;;;21.20;83.50;;;;;;5037566;28;20399;-71
2022/04/29 11:31:56;;;;;;;4.63;2.30;;;21.20;82.70;;;;;;5046950;28;20595;-70
2022/04/29 11:34:24;;;;;;;4.28;2.50;;;21.20;83.40;;;;;;5036467;28;20051;-71
2022/04/29 11:36:57;;;;;;;7.97;2.60;;;21.40;84.00;;;;;;5052624;28;20049;-71
2022/04/29 11:39:24;;;;;;;5.53;2.65;;;21.40;83.60;;;;;;5070560;28;20036;-72
2022/04/29 11:41:57;;;;;;;8.63;2.65;;;21.40;83.30;;;;;;5053007;28;20682;-71
2022/04/29 11:44:36;;;;;;;4.05;2.70;;;21.50;84.10;;;;;;5053605;28;20121;-72
2022/04/29 11:47:04;;;;;;;3.65;2.50;;;21.50;83.70;;;;;;5052647;28;20052;-72
2022/04/29 11:49:33;;;;;;;5.65;3.15;;;21.50;83.60;;;;;;5069389;28;20456;-74
2022/04/29 11:52:23;;;;;;;5.15;2.85;;;21.40;83.70;;;;;;5055340;28;20386;-72
2022/04/29 11:54:58;;;;;;;4.20;2.50;;;21.50;83.50;;;;;;5048633;28;20114;-72
2022/04/29 11:57:30;;;;;;;4.85;2.65;;;21.50;83.60;;;;;;5050572;28;20044;-72
2022/04/29 12:00:01;;;;;;;4.70;2.70;;;21.50;83.40;;;;;;5032490;28;20065;-72
2022/04/29 12:02:50;;;;;;;5.90;3.08;;;21.40;82.90;;;;;;5046402;28;20386;-71
2022/04/29 12:05:24;;;;;;;5.50;2.20;;;21.50;83.00;;;;;;5052615;28;20131;-73
2022/04/29 12:08:05;;;;;;;6.75;2.92;;;21.50;81.40;;;;;;5048754;28;20424;-72
2022/04/29 12:10:45;;;;;;;6.13;2.58;;;21.50;81.10;;;;;;5056134;28;20051;-78
2022/04/29 12:13:14;;;;;;;4.70;2.35;;;21.40;80.70;;;;;;5048190;28;20047;-71
2022/04/29 12:15:45;;;;;;;4.88;2.50;;;21.40;80.50;;;;;;5082134;28;20397;-72
2022/04/29 12:18:14;;;;;;;4.75;2.80;;;21.40;80.70;;;;;;5061115;28;20035;-73
2022/04/29 12:20:58;;;;;;;9.98;2.83;;;21.40;80.00;;;;;;5063521;28;20047;-74
2022/04/29 12:23:26;;;;;;;7.85;2.33;;;21.40;79.20;;;;;;5047958;28;20044;-72
2022/04/29 12:25:55;;;;;;;8.60;2.95;;;21.40;79.90;;;;;;5062012;28;20044;-73
2022/04/29 12:28:26;;;;;;;5.15;2.58;;;21.40;79.60;;;;;;5052551;28;20053;-73
2022/04/29 12:37:11;;;;;;;3.85;2.20;;;21.50;78.40;;;;;;4986953;28;20104;-73
2022/04/29 12:40:09;;;;;;;7.18;2.63;;;21.50;78.90;;;;;;5040526;28;20143;-73
2022/04/29 12:42:46;;;;;;;5.80;2.72;;;21.50;78.10;;;;;;5066437;28;20044;-73
2022/04/29 12:45:22;;;;;;;3.17;2.28;;;21.60;78.10;;;;;;5064617;28;20118;-73
2022/04/29 12:47:54;;;;;;;8.02;2.15;;;21.50;78.20;;;;;;5061233;28;20055;-75
2022/04/29 12:50:34;;;;;;;3.30;2.28;;;21.50;78.20;;;;;;5050343;28;20064;-77
2022/04/29 12:53:08;;;;;;;6.10;2.03;;;21.50;78.10;;;;;;5057971;28;20053;-73
2022/04/29 12:55:42;;;;;;;3.50;2.13;;;21.50;78.10;;;;;;5067173;28;20044;-73
2022/04/29 12:58:16;;;;;;;9.73;2.47;;;21.50;78.10;;;;;;5047854;28;20415;-73
2022/04/29 13:00:48;;;;;;;5.20;2.50;;;21.30;77.60;;;;;;5052967;28;20399;-73
2022/04/29 13:03:22;;;;;;;6.85;3.10;;;21.40;78.40;;;;;;5087039;28;20044;-74
2022/04/29 13:06:06;;;;;;;4.97;2.00;;;21.30;78.50;;;;;;5052956;28;20055;-74
2022/04/29 13:08:39;;;;;;;5.15;2.20;;;21.20;77.80;;;;;;5053676;28;20048;-73
2022/04/29 13:11:13;;;;;;;7.75;3.50;;;21.10;78.40;;;;;;5056355;28;20048;-73
2022/04/29 13:13:41;;;;;;;3.50;2.45;;;21.30;79.30;;;;;;5039446;28;20052;-75
2022/04/29 13:16:10;;;;;;;4.70;2.22;;;21.20;79.50;;;;;;5039461;28;20118;-74
2022/04/29 13:18:40;;;;;;;8.50;2.13;;;21.20;78.90;;;;;;5039387;28;20048;-73
2022/04/29 13:21:15;;;;;;;7.72;2.83;;;21.30;78.90;;;;;;5056374;28;20044;-73
2022/04/29 13:23:46;;;;;;;4.65;2.20;;;21.30;78.70;;;;;;5039983;28;20052;-73
2022/04/29 13:26:23;;;;;;;4.00;2.22;;;21.20;78.30;;;;;;5023927;28;20049;-74
2022/04/29 13:28:51;;;;;;;4.60;2.20;;;21.20;77.90;;;;;;5039537;28;20594;-74
2022/04/29 13:31:19;;;;;;;4.55;2.13;;;21.20;78.20;;;;;;5039362;28;20051;-74
2022/04/29 13:33:48;;;;;;;4.25;2.40;;;21.20;78.20;;;;;;5056265;28;20426;-73
2022/04/29 13:36:16;;;;;;;3.72;2.15;;;21.20;78.20;;;;;;5039659;28;20110;-73
2022/04/29 13:38:43;;;;;;;4.93;2.42;;;21.20;77.30;;;;;;5055992;28;20040;-73
2022/04/29 13:41:12;;;;;;;3.30;1.88;;;21.20;77.10;;;;;;5038311;28;20051;-72
2022/04/29 13:43:43;;;;;;;4.97;2.30;;;21.20;77.40;;;;;;5039558;28;20047;-71
2022/04/29 13:46:34;;;;;;;4.15;2.95;;;21.20;77.80;;;;;;5058883;28;20044;-72
2022/04/29 13:49:03;;;;;;;6.75;2.60;;;21.20;78.60;;;;;;5039218;28;20441;-72